Time;durP1;ratioP1;P1;durP2;ratioP2;P2;SDS_P1;SDS_P2;PMS_P1;PMS_P2;Temp;Humidity;BMP_temperature;BMP_pressure;BME280_temperature;BME280_humidity;BME280_pressure;Samples;Min_cycle;Max_cycle;Signal;HPM_P1;HPM_P2
2021/08/11 00:01:27;;;;;;;5.40;3.33;;;;;;;15.35;97.86;100964.41;5041504;28;20196;-74
2021/08/11 00:03:53;;;;;;;7.40;3.17;;;;;;;15.32;97.75;100972.69;5017415;28;20176;-74
2021/08/11 00:06:19;;;;;;;5.70;3.00;;;;;;;15.29;97.91;100968.38;5050635;28;20191;-74
2021/08/11 00:08:44;;;;;;;5.17;3.70;;;;;;;15.28;98.19;100972.03;5056407;28;20160;-74
2021/08/11 00:11:10;;;;;;;6.73;3.20;;;;;;;15.20;98.18;100969.00;5056803;28;20231;-74
2021/08/11 00:13:35;;;;;;;5.43;3.10;;;;;;;15.14;98.72;100976.63;5056667;28;20176;-74
2021/08/11 00:16:00;;;;;;;6.73;3.40;;;;;;;15.12;98.37;100979.44;5035317;28;20179;-74
2021/08/11 00:18:26;;;;;;;5.17;2.80;;;;;;;15.11;98.78;100972.34;5032453;28;20223;-73
2021/08/11 00:20:51;;;;;;;3.93;2.73;;;;;;;15.00;98.98;100969.53;5031825;28;20227;-74
2021/08/11 00:23:16;;;;;;;7.10;2.80;;;;;;;14.98;99.26;100964.28;5032028;28;20636;-74
2021/08/11 00:25:42;;;;;;;4.90;2.90;;;;;;;15.04;98.56;100971.06;5032026;28;20187;-74
2021/08/11 00:28:07;;;;;;;5.13;3.13;;;;;;;15.09;98.69;100976.09;5031936;28;20169;-74
2021/08/11 00:30:32;;;;;;;4.90;2.80;;;;;;;15.04;98.96;100973.75;5031885;28;20172;-74
2021/08/11 00:32:57;;;;;;;3.77;3.00;;;;;;;14.92;99.31;100979.97;5032214;28;20181;-73
2021/08/11 00:35:23;;;;;;;4.47;2.83;;;;;;;14.90;99.58;100971.16;5031915;28;20191;-74
2021/08/11 00:37:48;;;;;;;5.23;3.50;;;;;;;14.86;99.91;100969.63;5033069;28;20188;-74
2021/08/11 00:40:14;;;;;;;5.67;3.03;;;;;;;14.73;100.00;100971.44;5032166;28;20173;-74
2021/08/11 00:42:40;;;;;;;5.00;2.90;;;;;;;14.70;100.00;100980.56;5031914;28;20254;-74
2021/08/11 00:45:06;;;;;;;3.63;3.10;;;;;;;14.66;100.00;100979.91;5031783;28;20211;-74
2021/08/11 00:47:35;;;;;;;5.10;3.13;;;;;;;14.58;100.00;100984.94;5032370;28;20180;-74
2021/08/11 00:50:01;;;;;;;6.13;3.20;;;;;;;14.52;100.00;100982.66;5031802;28;20541;-75
2021/08/11 00:52:26;;;;;;;4.70;3.37;;;;;;;14.55;100.00;100985.16;5016378;28;20207;-74
2021/08/11 00:54:52;;;;;;;4.07;3.10;;;;;;;14.47;100.00;100991.97;5033257;28;20181;-75
2021/08/11 00:57:18;;;;;;;7.03;3.03;;;;;;;14.52;100.00;100992.56;5031788;28;20191;-75
2021/08/11 00:59:43;;;;;;;5.53;3.50;;;;;;;14.49;100.00;100996.28;5032285;28;20184;-75
2021/08/11 01:02:09;;;;;;;6.47;3.33;;;;;;;14.55;100.00;101000.41;5037315;28;20196;-75
2021/08/11 01:04:38;;;;;;;5.97;3.20;;;;;;;14.36;100.00;100993.53;5036053;28;20649;-75
2021/08/11 01:07:04;;;;;;;5.67;4.30;;;;;;;14.30;100.00;100987.69;5018552;28;20263;-75
2021/08/11 01:09:31;;;;;;;8.30;3.50;;;;;;;14.16;100.00;100990.44;5035334;28;20522;-75
2021/08/11 01:11:57;;;;;;;5.50;4.40;;;;;;;14.10;100.00;100983.63;5035981;28;20573;-74
2021/08/11 01:14:22;;;;;;;8.10;3.80;;;;;;;14.15;100.00;100994.09;5035530;28;20267;-75
2021/08/11 01:16:47;;;;;;;5.90;3.20;;;;;;;14.16;100.00;100995.81;5035788;28;20280;-75
2021/08/11 01:19:17;;;;;;;4.37;3.67;;;;;;;14.13;100.00;100993.31;5019259;28;20186;-75
2021/08/11 01:21:52;;;;;;;6.00;3.97;;;;;;;14.08;100.00;100989.09;5035946;28;20588;-74
2021/08/11 01:24:35;;;;;;;5.07;3.80;;;;;;;13.98;100.00;100993.34;5035278;28;20176;-75
2021/08/11 01:27:24;;;;;;;6.00;4.10;;;;;;;13.97;100.00;100988.06;5035131;28;20155;-74
2021/08/11 01:29:58;;;;;;;4.53;3.70;;;;;;;13.93;100.00;100990.09;5035052;28;20176;-75
2021/08/11 01:32:51;;;;;;;5.43;4.37;;;;;;;13.93;100.00;100984.72;5051599;28;20214;-75
2021/08/11 01:35:19;;;;;;;6.73;4.20;;;;;;;13.84;100.00;100990.69;5052541;28;20231;-75
2021/08/11 01:37:45;;;;;;;6.77;3.97;;;;;;;13.87;100.00;100984.25;5036888;28;20195;-74
2021/08/11 01:40:12;;;;;;;5.27;4.53;;;;;;;13.85;100.00;100986.19;5019743;28;20536;-75
2021/08/11 01:42:42;;;;;;;8.13;4.40;;;;;;;13.75;100.00;100985.88;5036142;28;20188;-74
2021/08/11 01:45:13;;;;;;;6.50;4.50;;;;;;;13.74;100.00;100990.38;5036299;28;20234;-74
2021/08/11 01:47:43;;;;;;;7.57;4.97;;;;;;;13.70;100.00;100993.38;5036422;28;20175;-74
2021/08/11 01:50:12;;;;;;;8.10;4.97;;;;;;;13.71;100.00;100984.34;5035838;28;20179;-74
2021/08/11 01:52:40;;;;;;;7.23;4.87;;;;;;;13.71;100.00;100992.41;5036323;28;20215;-73
2021/08/11 01:55:07;;;;;;;9.17;5.00;;;;;;;13.67;100.00;100989.06;5036144;28;20226;-74
2021/08/11 01:57:33;;;;;;;6.90;4.83;;;;;;;13.60;100.00;100989.56;5035660;28;20734;-75
2021/08/11 01:59:58;;;;;;;8.37;5.77;;;;;;;13.56;100.00;100996.06;5019204;28;20180;-74
2021/08/11 02:02:23;;;;;;;6.37;5.17;;;;;;;13.57;100.00;100995.13;5035905;28;20759;-73
2021/08/11 02:04:49;;;;;;;9.13;5.67;;;;;;;13.59;100.00;100999.41;5035753;28;20180;-74
2021/08/11 02:07:14;;;;;;;6.07;5.27;;;;;;;13.52;100.00;100994.53;5036359;28;20187;-74
2021/08/11 02:09:40;;;;;;;7.97;5.40;;;;;;;13.49;100.00;100992.91;5034985;28;20259;-74
2021/08/11 02:12:06;;;;;;;6.83;5.70;;;;;;;13.47;100.00;100996.66;5035337;28;20196;-74
2021/08/11 02:14:31;;;;;;;8.53;6.27;;;;;;;13.45;100.00;100994.06;5035934;28;20292;-74
2021/08/11 02:16:58;;;;;;;9.13;6.23;;;;;;;13.42;100.00;100995.13;5035799;28;20203;-74
2021/08/11 02:19:24;;;;;;;9.73;7.77;;;;;;;13.43;100.00;100988.81;5036855;28;20168;-74
2021/08/11 02:21:49;;;;;;;9.20;6.67;;;;;;;13.44;100.00;100992.34;5036248;28;20199;-74
2021/08/11 02:24:15;;;;;;;8.27;7.27;;;;;;;13.41;100.00;100997.91;5034436;28;20245;-74
2021/08/11 02:26:47;;;;;;;9.10;5.90;;;;;;;13.39;100.00;100998.00;5035229;28;20175;-74
2021/08/11 02:29:35;;;;;;;9.87;7.20;;;;;;;13.36;100.00;100995.47;5020173;28;20285;-75
2021/08/11 02:32:18;;;;;;;10.17;6.83;;;;;;;13.30;100.00;101001.22;5034221;28;20196;-75
2021/08/11 02:34:55;;;;;;;9.07;7.23;;;;;;;13.29;100.00;101009.34;5034491;28;20165;-74
2021/08/11 02:37:29;;;;;;;9.17;7.50;;;;;;;13.24;100.00;101004.28;5037624;28;20188;-74
2021/08/11 02:40:08;;;;;;;10.87;7.73;;;;;;;13.13;100.00;101006.72;5037039;28;20156;-74
2021/08/11 02:42:56;;;;;;;12.43;8.00;;;;;;;13.15;100.00;101011.03;5033641;28;20188;-74
2021/08/11 02:45:22;;;;;;;14.07;8.03;;;;;;;13.20;100.00;101007.25;5017462;28;20238;-74
2021/08/11 02:47:48;;;;;;;9.37;7.90;;;;;;;13.19;100.00;101014.44;5033634;28;20167;-74
2021/08/11 02:50:14;;;;;;;11.83;8.57;;;;;;;13.21;100.00;101017.00;5033628;28;20682;-75
2021/08/11 02:52:40;;;;;;;10.77;8.33;;;;;;;13.17;100.00;101013.66;5036186;28;20234;-74
2021/08/11 02:55:06;;;;;;;10.43;8.23;;;;;;;13.19;100.00;101011.75;5033203;28;20298;-74
2021/08/11 02:57:33;;;;;;;10.60;9.17;;;;;;;13.14;100.00;101013.81;5033528;28;20297;-73
2021/08/11 02:59:59;;;;;;;10.93;8.70;;;;;;;13.12;100.00;101013.03;5034448;28;20667;-74
2021/08/11 03:02:25;;;;;;;9.93;8.70;;;;;;;13.11;100.00;101016.69;5033819;28;20193;-74
2021/08/11 03:04:50;;;;;;;14.20;9.23;;;;;;;13.09;100.00;101019.44;5016471;28;20180;-74
2021/08/11 03:07:16;;;;;;;11.47;8.63;;;;;;;13.04;100.00;101015.34;5016520;28;20179;-74
2021/08/11 03:09:42;;;;;;;15.27;11.27;;;;;;;13.05;100.00;101014.38;5032967;28;20242;-73
2021/08/11 03:12:08;;;;;;;9.93;8.90;;;;;;;13.07;100.00;101021.38;5033373;28;20192;-74
2021/08/11 03:14:35;;;;;;;14.97;9.87;;;;;;;13.04;100.00;101020.69;5033205;28;20184;-73
2021/08/11 03:17:00;;;;;;;12.37;9.83;;;;;;;13.03;100.00;101016.28;5033442;28;20189;-73
2021/08/11 03:19:25;;;;;;;15.23;10.47;;;;;;;13.07;100.00;101025.88;5032829;28;20242;-73
2021/08/11 03:21:50;;;;;;;14.57;9.80;;;;;;;13.03;100.00;101018.97;5032620;28;20253;-74
2021/08/11 03:24:18;;;;;;;16.93;10.77;;;;;;;13.04;100.00;101020.69;5033664;28;20533;-73
2021/08/11 03:26:43;;;;;;;12.67;11.33;;;;;;;13.00;100.00;101021.81;5032310;28;20187;-73
2021/08/11 03:29:08;;;;;;;18.20;11.07;;;;;;;13.05;100.00;101022.41;5033225;28;20680;-74
2021/08/11 03:31:34;;;;;;;14.53;11.17;;;;;;;13.03;100.00;101027.00;5032643;28;20668;-73
2021/08/11 03:33:59;;;;;;;18.37;12.77;;;;;;;13.06;100.00;101029.50;5033716;28;20176;-73
2021/08/11 03:36:24;;;;;;;15.37;12.00;;;;;;;13.04;100.00;101039.44;5033474;28;20195;-74
2021/08/11 03:38:50;;;;;;;16.00;11.63;;;;;;;13.10;100.00;101045.28;5033278;28;20176;-75
2021/08/11 03:41:16;;;;;;;18.83;11.97;;;;;;;13.11;100.00;101038.13;5033297;28;20254;-74
2021/08/11 03:43:41;;;;;;;16.20;11.57;;;;;;;13.05;100.00;101033.13;5017026;28;20184;-74
2021/08/11 03:46:06;;;;;;;14.80;12.07;;;;;;;13.04;100.00;101034.09;5032553;28;20184;-74
2021/08/11 03:48:31;;;;;;;14.93;11.57;;;;;;;13.16;100.00;101038.69;5033066;28;20587;-74
2021/08/11 03:50:57;;;;;;;16.17;12.33;;;;;;;13.24;100.00;101041.81;5056642;22;20231;-72
2021/08/11 03:53:22;;;;;;;19.13;14.57;;;;;;;13.27;100.00;101049.66;5052622;28;20234;-73
2021/08/11 03:55:47;;;;;;;16.97;13.03;;;;;;;13.27;100.00;101054.16;5051503;28;20548;-73
2021/08/11 03:58:13;;;;;;;22.00;14.37;;;;;;;13.36;100.00;101049.09;5052667;28;20196;-73
2021/08/11 04:00:38;;;;;;;18.23;13.93;;;;;;;13.42;100.00;101055.91;5051466;28;20186;-73
2021/08/11 04:03:04;;;;;;;19.80;15.07;;;;;;;13.47;100.00;101050.28;5053714;28;20211;-73
2021/08/11 04:05:29;;;;;;;21.37;13.93;;;;;;;13.40;100.00;101056.03;5051707;28;20177;-73
2021/08/11 04:07:54;;;;;;;22.90;15.10;;;;;;;13.49;100.00;101059.09;5051475;28;20548;-73
2021/08/11 04:10:19;;;;;;;23.53;14.60;;;;;;;13.47;100.00;101063.69;5051475;28;20179;-73
2021/08/11 04:12:45;;;;;;;18.77;14.13;;;;;;;13.47;100.00;101071.72;5051309;28;20269;-68
2021/08/11 04:15:11;;;;;;;23.37;14.87;;;;;;;13.52;100.00;101069.63;5051414;28;20644;-67
2021/08/11 04:17:36;;;;;;;24.37;16.03;;;;;;;13.63;100.00;101072.50;5052583;28;20675;-67
2021/08/11 04:20:03;;;;;;;26.73;16.20;;;;;;;13.66;100.00;101069.63;5052589;28;20183;-67
2021/08/11 04:22:28;;;;;;;22.67;15.10;;;;;;;13.67;100.00;101064.16;5051496;28;20294;-67
2021/08/11 04:24:53;;;;;;;23.33;17.17;;;;;;;13.76;100.00;101071.66;5052723;28;20218;-67
2021/08/11 04:27:19;;;;;;;27.83;18.57;;;;;;;13.73;100.00;101068.28;5052592;28;20172;-67
2021/08/11 04:29:44;;;;;;;23.70;16.33;;;;;;;13.72;100.00;101069.22;5052917;28;20195;-67
2021/08/11 04:32:09;;;;;;;22.10;16.03;;;;;;;13.75;100.00;101074.41;5052888;28;20211;-67
2021/08/11 04:34:35;;;;;;;25.77;17.33;;;;;;;13.86;100.00;101069.25;5052800;28;20204;-67
2021/08/11 04:37:00;;;;;;;23.63;16.73;;;;;;;13.92;100.00;101068.00;5056694;28;20261;-67
2021/08/11 04:39:25;;;;;;;27.63;17.70;;;;;;;13.93;100.00;101070.59;5055778;28;20183;-67
2021/08/11 04:41:51;;;;;;;23.33;16.10;;;;;;;13.97;100.00;101072.13;5056582;28;20206;-66
2021/08/11 04:44:16;;;;;;;23.27;16.80;;;;;;;14.11;100.00;101073.91;5054998;28;20639;-66
2021/08/11 04:46:41;;;;;;;25.73;17.13;;;;;;;14.18;100.00;101067.22;5056325;28;20168;-66
2021/08/11 04:49:07;;;;;;;22.73;16.77;;;;;;;14.26;100.00;101072.09;5056083;28;20255;-66
2021/08/11 04:51:32;;;;;;;25.90;18.97;;;;;;;14.29;100.00;101082.63;5055814;28;20218;-66
2021/08/11 04:53:57;;;;;;;26.27;17.40;;;;;;;14.36;100.00;101087.50;5056002;28;20221;-66
2021/08/11 04:56:23;;;;;;;25.83;18.17;;;;;;;14.35;100.00;101074.16;5055753;28;20644;-66
2021/08/11 04:58:48;;;;;;;23.50;18.17;;;;;;;14.39;100.00;101083.75;5055787;28;20221;-65
2021/08/11 05:01:13;;;;;;;22.90;16.43;;;;;;;14.33;100.00;101085.00;5055897;28;20202;-67
2021/08/11 05:03:39;;;;;;;26.60;17.83;;;;;;;14.41;100.00;101084.50;5056066;28;20295;-66
2021/08/11 05:06:06;;;;;;;28.97;17.57;;;;;;;14.41;100.00;101092.56;5055916;28;20172;-65
2021/08/11 05:08:31;;;;;;;23.80;16.93;;;;;;;14.41;100.00;101089.88;5055714;28;20172;-65
2021/08/11 05:10:57;;;;;;;27.40;17.97;;;;;;;14.45;100.00;101094.13;5055261;28;20671;-65
2021/08/11 05:13:22;;;;;;;28.00;18.07;;;;;;;14.51;100.00;101098.25;5054215;28;20172;-65
2021/08/11 05:15:47;;;;;;;22.67;16.77;;;;;;;14.53;100.00;101091.81;5055325;28;20176;-65
2021/08/11 05:18:12;;;;;;;28.00;18.20;;;;;;;14.61;100.00;101108.28;5055518;28;20195;-76
2021/08/11 05:20:38;;;;;;;23.40;16.87;;;;;;;14.57;100.00;101109.47;5056367;28;20176;-75
2021/08/11 05:23:03;;;;;;;26.57;17.27;;;;;;;14.53;100.00;101105.25;5054380;28;20294;-77
2021/08/11 05:25:29;;;;;;;27.77;16.53;;;;;;;14.54;100.00;101111.47;5055138;28;20211;-75
2021/08/11 05:27:54;;;;;;;23.30;15.73;;;;;;;14.49;100.00;101121.63;5055799;28;20228;-75
2021/08/11 05:30:19;;;;;;;24.40;15.60;;;;;;;14.61;100.00;101121.72;5054834;28;20188;-76
2021/08/11 05:32:45;;;;;;;24.27;15.37;;;;;;;14.67;100.00;101120.47;5054213;28;20200;-76
2021/08/11 05:35:10;;;;;;;22.30;15.10;;;;;;;14.68;100.00;101116.81;5054471;28;20175;-75
2021/08/11 05:37:36;;;;;;;24.73;15.93;;;;;;;14.82;100.00;101129.31;5038270;28;20187;-75
2021/08/11 05:40:03;;;;;;;20.60;14.90;;;;;;;14.84;100.00;101122.03;5055142;28;20183;-75
2021/08/11 05:42:28;;;;;;;23.23;14.70;;;;;;;14.95;100.00;101128.44;5055776;28;20266;-77
2021/08/11 05:44:53;;;;;;;16.87;13.30;;;;;;;15.01;100.00;101119.09;5055503;28;20175;-76
2021/08/11 05:47:19;;;;;;;23.33;14.07;;;;;;;15.09;100.00;101132.03;5054352;28;20168;-75
2021/08/11 05:49:44;;;;;;;22.90;13.33;;;;;;;15.16;100.00;101138.69;5054182;28;20176;-76
2021/08/11 05:52:09;;;;;;;21.93;13.90;;;;;;;15.24;100.00;101134.56;5054012;28;20211;-76
2021/08/11 05:54:35;;;;;;;18.40;12.23;;;;;;;15.30;100.00;101138.66;5037558;28;20180;-76
2021/08/11 05:57:02;;;;;;;21.97;13.50;;;;;;;15.35;100.00;101138.34;5053975;28;20260;-76
2021/08/11 05:59:28;;;;;;;20.43;13.40;;;;;;;15.31;100.00;101137.69;5053801;28;20233;-76
2021/08/11 06:01:54;;;;;;;23.57;13.70;;;;;;;15.40;100.00;101128.97;5054987;28;20188;-75
2021/08/11 06:04:22;;;;;;;23.40;13.07;;;;;;;15.54;99.06;101142.34;5055413;28;20183;-75
2021/08/11 06:06:47;;;;;;;19.70;12.73;;;;;;;15.58;98.16;101134.94;5054692;28;20175;-75
2021/08/11 06:09:12;;;;;;;20.20;12.40;;;;;;;15.64;98.31;101150.69;5055952;28;20182;-76
2021/08/11 06:11:38;;;;;;;22.67;12.00;;;;;;;15.71;98.13;101146.59;5055606;28;20245;-76
2021/08/11 06:14:03;;;;;;;16.97;11.63;;;;;;;15.69;97.39;101137.78;5038114;28;20180;-76
2021/08/11 06:16:28;;;;;;;17.10;11.37;;;;;;;15.68;98.12;101146.81;5038690;28;20659;-76
2021/08/11 06:18:56;;;;;;;17.53;12.10;;;;;;;15.70;97.62;101150.25;5055393;28;20544;-76
2021/08/11 06:21:21;;;;;;;15.23;10.97;;;;;;;15.79;96.52;101146.06;5058848;28;20194;-76
2021/08/11 06:23:47;;;;;;;16.53;10.77;;;;;;;15.92;95.99;101152.31;5060935;28;20172;-76
2021/08/11 06:26:12;;;;;;;17.90;10.90;;;;;;;16.04;95.64;101147.91;5061062;28;20529;-76
2021/08/11 06:28:37;;;;;;;18.00;10.40;;;;;;;16.14;93.83;101154.34;5062221;28;20183;-77
2021/08/11 06:31:03;;;;;;;13.47;9.90;;;;;;;16.20;93.86;101160.16;5065399;28;20183;-76
2021/08/11 06:33:28;;;;;;;16.13;9.50;;;;;;;16.23;94.06;101165.31;5072553;28;20175;-73
2021/08/11 06:35:53;;;;;;;17.20;10.77;;;;;;;16.20;93.62;101164.69;5072507;28;20167;-76
2021/08/11 06:38:18;;;;;;;15.73;10.37;;;;;;;16.15;94.75;101166.84;5072044;28;20221;-75
2021/08/11 06:40:44;;;;;;;16.70;11.07;;;;;;;16.15;93.98;101167.72;5071329;28;20172;-76
2021/08/11 06:43:09;;;;;;;15.67;10.17;;;;;;;16.18;93.51;101170.19;5054610;28;20200;-77
2021/08/11 06:45:34;;;;;;;14.20;10.90;;;;;;;16.22;94.02;101171.69;5037933;28;20637;-75
2021/08/11 06:48:00;;;;;;;13.47;10.17;;;;;;;16.28;93.83;101167.69;5054387;28;20179;-76
2021/08/11 06:50:25;;;;;;;16.63;10.77;;;;;;;16.33;92.82;101165.53;5055773;28;20652;-77
2021/08/11 06:52:51;;;;;;;15.67;10.50;;;;;;;16.32;92.45;101174.56;5055144;28;20259;-77
2021/08/11 06:55:17;;;;;;;15.20;9.57;;;;;;;16.39;92.50;101166.94;5055083;28;20189;-76
2021/08/11 06:57:44;;;;;;;13.40;10.00;;;;;;;16.43;91.83;101174.69;5052495;28;20196;-75
2021/08/11 07:00:10;;;;;;;15.07;9.57;;;;;;;16.39;91.54;101164.25;5055315;28;20214;-77
2021/08/11 07:02:35;;;;;;;12.80;9.57;;;;;;;16.36;91.04;101175.25;5053667;28;20187;-76
2021/08/11 07:05:01;;;;;;;11.77;8.97;;;;;;;16.48;91.19;101174.34;5054786;28;20176;-76
2021/08/11 07:07:27;;;;;;;16.10;9.27;;;;;;;16.72;90.12;101175.28;5054485;28;20167;-76
2021/08/11 07:09:53;;;;;;;14.00;8.93;;;;;;;16.72;89.06;101169.88;5053581;28;20249;-76
2021/08/11 07:12:19;;;;;;;14.47;9.20;;;;;;;16.67;88.99;101180.16;5053595;28;20200;-76
2021/08/11 07:14:45;;;;;;;17.80;9.67;;;;;;;16.74;88.69;101175.19;5036706;28;20198;-76
2021/08/11 07:17:11;;;;;;;13.97;8.97;;;;;;;16.76;88.17;101162.47;5053987;28;20651;-76
2021/08/11 07:19:37;;;;;;;15.93;9.00;;;;;;;16.85;87.86;101175.25;5053411;28;20168;-76
2021/08/11 07:22:03;;;;;;;14.60;9.03;;;;;;;16.93;87.92;101178.25;5057325;28;20676;-76
2021/08/11 07:24:28;;;;;;;12.63;8.90;;;;;;;17.12;88.05;101173.22;5056265;28;20170;-76
2021/08/11 07:26:53;;;;;;;10.73;8.50;;;;;;;17.11;86.75;101179.59;5056122;28;20175;-76
2021/08/11 07:29:19;;;;;;;15.63;8.47;;;;;;;17.07;86.94;101183.47;5055155;28;20180;-76
2021/08/11 07:31:44;;;;;;;16.43;11.90;;;;;;;17.06;86.52;101181.75;5035910;28;20203;-76
2021/08/11 07:34:11;;;;;;;12.57;7.60;;;;;;;17.30;85.76;101199.78;5035095;28;20563;-76
2021/08/11 07:36:36;;;;;;;13.23;9.17;;;;;;;17.34;85.35;101202.13;5052276;28;20196;-76
2021/08/11 07:39:01;;;;;;;11.03;7.60;;;;;;;17.47;84.60;101197.53;5052118;28;20640;-76
2021/08/11 07:41:27;;;;;;;12.53;8.40;;;;;;;17.44;85.22;101196.88;5051982;28;20202;-75
2021/08/11 07:43:52;;;;;;;12.63;7.93;;;;;;;17.44;85.02;101191.50;5036027;28;20182;-75
2021/08/11 07:46:17;;;;;;;10.67;7.57;;;;;;;17.17;84.25;101194.44;5035477;28;20179;-76
2021/08/11 07:48:42;;;;;;;11.97;7.60;;;;;;;17.07;86.15;101188.00;5035639;28;20551;-76
2021/08/11 07:51:08;;;;;;;13.43;8.47;;;;;;;17.11;86.11;101192.22;5054552;28;20195;-77
2021/08/11 07:53:33;;;;;;;13.70;7.53;;;;;;;17.13;86.11;101191.13;5052047;28;20164;-77
2021/08/11 07:55:58;;;;;;;15.77;8.60;;;;;;;17.22;85.30;101197.66;5052335;28;20172;-77
2021/08/11 07:58:25;;;;;;;14.80;8.23;;;;;;;17.16;86.55;101198.13;5052347;28;20187;-75
2021/08/11 08:00:52;;;;;;;11.87;8.53;;;;;;;17.37;85.22;101195.63;5052567;28;20224;-77
2021/08/11 08:03:17;;;;;;;15.63;7.53;;;;;;;17.54;85.15;101203.31;5052148;28;20191;-76
2021/08/11 08:05:42;;;;;;;16.57;7.57;;;;;;;17.64;83.73;101208.88;5053737;28;20640;-77
2021/08/11 08:08:08;;;;;;;11.63;6.97;;;;;;;17.88;82.31;101201.63;5052187;28;20168;-75
2021/08/11 08:10:33;;;;;;;14.37;6.80;;;;;;;17.83;80.99;101206.50;5056797;28;20185;-76
2021/08/11 08:12:59;;;;;;;11.10;6.50;;;;;;;17.60;81.33;101196.59;5057246;28;20195;-76
2021/08/11 08:15:25;;;;;;;16.33;6.50;;;;;;;17.74;81.00;101202.69;5039613;28;20584;-76
2021/08/11 08:17:50;;;;;;;12.93;6.43;;;;;;;18.01;80.79;101212.31;5057797;28;20298;-76
2021/08/11 08:20:19;;;;;;;13.37;6.77;;;;;;;18.02;81.49;101208.66;5056343;28;20187;-76
2021/08/11 08:22:45;;;;;;;8.30;5.87;;;;;;;18.26;80.68;101205.88;5056959;28;20248;-76
2021/08/11 08:25:11;;;;;;;12.33;6.30;;;;;;;18.28;76.99;101204.75;5056079;28;20247;-77
2021/08/11 08:27:40;;;;;;;11.83;5.40;;;;;;;18.52;77.14;101209.16;5055892;28;20179;-76
2021/08/11 08:30:07;;;;;;;7.13;5.57;;;;;;;18.63;77.41;101204.69;5055671;28;20180;-76
2021/08/11 08:32:32;;;;;;;10.57;6.30;;;;;;;18.57;77.36;101199.72;5055670;28;20199;-76
2021/08/11 08:34:58;;;;;;;16.07;5.23;;;;;;;18.43;77.20;101213.47;5057291;28;20187;-76
2021/08/11 08:37:28;;;;;;;10.67;6.00;;;;;;;18.44;76.98;101216.06;5055535;28;20287;-75
2021/08/11 08:39:53;;;;;;;10.43;4.83;;;;;;;18.48;75.96;101202.28;5055653;28;20191;-76
2021/08/11 08:42:19;;;;;;;10.93;5.17;;;;;;;18.30;75.56;101212.75;5055658;28;20211;-76
2021/08/11 08:44:44;;;;;;;6.50;5.00;;;;;;;18.29;76.57;101211.03;5055325;28;20175;-75
2021/08/11 08:47:10;;;;;;;5.83;4.53;;;;;;;18.58;74.07;101211.38;5055124;28;20205;-76
2021/08/11 08:49:35;;;;;;;8.07;4.40;;;;;;;18.68;73.83;101207.88;5038592;28;20183;-76
2021/08/11 08:52:01;;;;;;;10.70;4.90;;;;;;;18.70;74.03;101208.59;5054984;28;20217;-75
2021/08/11 08:54:27;;;;;;;8.50;5.17;;;;;;;18.75;73.67;101221.75;5055063;28;20255;-76
2021/08/11 08:56:53;;;;;;;6.77;4.63;;;;;;;18.68;74.62;101207.00;5055410;28;20313;-75
2021/08/11 08:59:18;;;;;;;8.10;4.97;;;;;;;18.14;76.04;101218.47;5055801;28;20668;-75
2021/08/11 09:01:43;;;;;;;7.20;4.80;;;;;;;18.44;75.00;101216.06;5055883;28;20195;-76
2021/08/11 09:04:09;;;;;;;8.93;4.53;;;;;;;18.89;74.71;101216.06;5056743;28;20191;-75
2021/08/11 09:06:35;;;;;;;7.27;4.10;;;;;;;19.29;74.05;101210.91;5056903;28;20183;-75
2021/08/11 09:09:05;;;;;;;7.27;4.53;;;;;;;19.07;71.77;101205.59;5055736;28;20179;-75
2021/08/11 09:11:32;;;;;;;11.00;6.20;;;;;;;19.17;72.33;101213.78;5054894;28;20195;-76
2021/08/11 09:14:17;;;;;;;8.10;5.27;;;;;;;19.32;71.53;101221.47;5056359;28;20194;-76
2021/08/11 09:16:51;;;;;;;8.83;5.17;;;;;;;19.01;72.55;101219.63;5054846;28;20199;-75
2021/08/11 09:19:17;;;;;;;10.13;5.17;;;;;;;18.69;73.34;101215.00;5038846;28;20184;-75
2021/08/11 09:22:01;;;;;;;5.83;4.13;;;;;;;18.70;73.02;101221.25;5054901;28;20675;-75
2021/08/11 09:24:27;;;;;;;5.37;4.07;;;;;;;19.01;71.13;101219.63;5055897;28;20172;-75
2021/08/11 09:26:54;;;;;;;5.40;3.87;;;;;;;19.51;69.68;101218.09;5056633;28;20179;-76
2021/08/11 09:29:20;;;;;;;6.10;3.80;;;;;;;19.60;69.17;101224.63;5054514;28;20172;-76
2021/08/11 09:31:45;;;;;;;10.33;4.00;;;;;;;19.29;69.35;101218.19;5054826;28;20206;-76
2021/08/11 09:34:12;;;;;;;7.03;3.93;;;;;;;19.10;69.66;101215.28;5054278;28;20182;-76
2021/08/11 09:36:51;;;;;;;9.03;3.73;;;;;;;19.15;69.46;101218.47;5053880;28;20229;-76
2021/08/11 09:39:18;;;;;;;7.70;3.20;;;;;;;19.56;69.08;101221.31;5054537;28;20221;-76
2021/08/11 09:42:05;;;;;;;5.57;3.33;;;;;;;19.73;66.89;101228.03;5037216;28;20202;-75
2021/08/11 09:44:31;;;;;;;6.27;3.10;;;;;;;19.19;68.35;101228.06;5054865;28;20563;-75
2021/08/11 09:47:12;;;;;;;6.13;3.57;;;;;;;18.73;70.85;101231.81;5055035;28;20218;-75
2021/08/11 09:49:38;;;;;;;4.17;3.30;;;;;;;18.96;69.23;101232.66;5054335;28;20259;-76
2021/08/11 09:52:03;;;;;;;5.07;2.53;;;;;;;19.28;67.73;101222.72;5057280;22;20243;-68
2021/08/11 09:54:30;;;;;;;5.60;3.07;;;;;;;19.44;67.62;101216.91;5055164;28;20175;-66
2021/08/11 09:56:56;;;;;;;6.17;2.97;;;;;;;19.85;66.34;101232.38;5055588;28;20200;-66
2021/08/11 09:59:21;;;;;;;6.63;3.17;;;;;;;19.83;65.23;101231.66;5055511;28;20180;-66
2021/08/11 10:01:46;;;;;;;4.93;3.10;;;;;;;19.97;64.93;101230.47;5059642;28;20214;-66
2021/08/11 10:04:13;;;;;;;6.20;3.17;;;;;;;20.03;64.47;101227.22;5059489;28;20533;-68
2021/08/11 10:06:43;;;;;;;6.10;3.40;;;;;;;20.27;62.53;101226.94;5059558;28;20168;-66
2021/08/11 10:09:38;;;;;;;7.13;3.27;;;;;;;20.38;63.60;101236.84;5054749;28;20547;-67
2021/08/11 10:12:03;;;;;;;6.13;3.37;;;;;;;20.53;64.36;101216.56;5049851;28;20211;-66
2021/08/11 10:14:30;;;;;;;5.00;2.90;;;;;;;20.38;65.24;101234.13;5055040;28;20199;-66
2021/08/11 10:16:57;;;;;;;7.93;3.27;;;;;;;20.30;64.10;101235.66;5054910;28;20192;-67
2021/08/11 10:19:24;;;;;;;5.87;3.10;;;;;;;20.51;61.48;101237.53;5054700;28;20198;-66
2021/08/11 10:21:59;;;;;;;3.90;2.47;;;;;;;20.42;61.50;101244.59;5054288;28;20545;-65
2021/08/11 10:24:24;;;;;;;3.30;2.33;;;;;;;20.68;58.14;101233.31;5053151;28;20693;-66
2021/08/11 10:26:52;;;;;;;5.53;2.63;;;;;;;21.15;58.97;101240.75;5054413;28;20172;-66
2021/08/11 10:29:17;;;;;;;5.37;2.37;;;;;;;21.16;58.34;101242.47;5054399;28;20194;-66
2021/08/11 10:31:43;;;;;;;3.73;2.40;;;;;;;20.68;60.73;101236.03;5053149;28;20195;-66
2021/08/11 10:34:10;;;;;;;3.13;2.20;;;;;;;20.30;62.20;101242.94;5054211;28;20199;-65
2021/08/11 10:36:36;;;;;;;3.53;2.33;;;;;;;19.77;64.50;101245.72;5054008;28;20287;-65
2021/08/11 10:39:01;;;;;;;5.40;2.60;;;;;;;19.79;65.31;101248.31;5052898;28;20620;-66
2021/08/11 10:41:30;;;;;;;3.13;2.50;;;;;;;19.87;64.89;101249.38;5054342;28;20183;-66
2021/08/11 10:43:56;;;;;;;3.50;2.40;;;;;;;20.32;60.98;101256.38;5053096;28;20164;-66
2021/08/11 10:46:22;;;;;;;3.30;2.23;;;;;;;21.04;59.95;101237.28;5054536;28;20186;-66
2021/08/11 10:49:04;;;;;;;4.57;2.90;;;;;;;21.68;57.63;101242.28;5054412;28;20179;-66
2021/08/11 10:51:41;;;;;;;2.73;2.17;;;;;;;21.60;57.75;101242.16;5054502;28;20175;-67
2021/08/11 10:54:07;;;;;;;2.90;2.10;;;;;;;21.15;56.15;101240.75;5056749;28;20630;-67
2021/08/11 10:56:47;;;;;;;6.77;3.27;;;;;;;21.32;57.52;101246.53;5053034;28;20318;-66
2021/08/11 10:59:35;;;;;;;3.20;2.13;;;;;;;21.29;58.31;101239.53;5052381;28;20552;-67
2021/08/11 11:02:00;;;;;;;5.67;2.70;;;;;;;21.67;57.08;101249.56;5053982;28;20638;-67
2021/08/11 11:04:36;;;;;;;6.07;3.00;;;;;;;21.89;57.23;101251.13;5053995;28;20181;-67
2021/08/11 11:07:07;;;;;;;4.23;2.73;;;;;;;21.67;57.01;101235.13;5053285;28;20305;-67
2021/08/11 11:09:33;;;;;;;4.23;2.97;;;;;;;22.71;54.56;101262.28;5052018;28;20258;-67
2021/08/11 11:11:58;;;;;;;2.87;2.00;;;;;;;24.33;49.63;101253.31;5053752;28;20272;-66
2021/08/11 11:14:43;;;;;;;3.67;2.13;;;;;;;25.80;44.34;101251.03;5035391;28;20175;-67